createdAt,value
2019-03-01T00:00:46.471Z,65.100098
2019-03-01T00:01:55.983Z,65.197754
2019-03-01T00:03:05.485Z,64.923096
2019-03-01T00:04:14.989Z,64.892578
2019-03-01T00:05:24.499Z,64.819336
2019-03-01T00:06:34.031Z,64.819336
2019-03-01T00:07:43.532Z,64.611816
2019-03-01T00:08:53.040Z,64.51416
2019-03-01T00:10:02.545Z,64.379883
2019-03-01T00:11:12.055Z,63.970947
2019-03-01T00:12:21.571Z,63.763428
2019-03-01T00:13:31.079Z,63.458252
2019-03-01T00:14:40.570Z,63.458252
2019-03-01T00:15:50.069Z,63.458252
2019-03-01T00:16:59.587Z,63.458252
2019-03-01T00:18:09.092Z,63.562012
2019-03-01T00:19:18.604Z,63.659668
2019-03-01T00:20:28.101Z,63.867188
2019-03-01T00:21:37.613Z,63.970947
2019-03-01T00:22:47.140Z,63.867188
2019-03-01T00:23:56.638Z,63.970947
2019-03-01T00:25:06.132Z,64.074707
2019-03-01T00:26:15.637Z,64.172363
2019-03-01T00:27:25.152Z,64.276123
2019-03-01T00:28:34.653Z,64.587402
2019-03-01T00:29:44.152Z,64.483643
2019-03-01T00:30:53.657Z,64.587402
2019-03-01T00:32:03.176Z,64.483643
2019-03-01T00:33:12.681Z,64.685059
2019-03-01T00:34:22.189Z,64.685059
2019-03-01T00:35:31.679Z,64.685059
2019-03-01T00:36:41.221Z,64.819336
2019-03-01T00:37:50.695Z,64.819336
2019-03-01T00:39:00.198Z,64.819336
2019-03-01T00:40:09.700Z,65.026855
2019-03-01T00:41:19.214Z,65.124512
2019-03-01T00:42:28.729Z,65.124512
2019-03-01T00:43:38.242Z,65.332031
2019-03-01T00:44:48.155Z,65.332031
2019-03-01T00:45:57.237Z,65.435791
2019-03-01T00:47:06.761Z,65.435791
2019-03-01T00:48:16.266Z,65.435791
2019-03-01T00:49:25.772Z,65.435791
2019-03-01T00:50:35.290Z,65.228271
2019-03-01T00:51:44.793Z,65.228271
2019-03-01T00:52:54.298Z,65.332031
2019-03-01T00:54:03.798Z,65.124512
2019-03-01T00:55:13.320Z,64.51416
2019-03-01T00:56:22.822Z,64.306641
2019-03-01T00:57:32.323Z,64.001465
2019-03-01T00:58:41.831Z,63.690186
2019-03-01T00:59:51.321Z,64.202881
2019-03-01T01:01:00.848Z,64.031982
2019-03-01T01:02:10.352Z,63.928223
2019-03-01T01:03:19.874Z,63.928223
2019-03-01T01:04:29.386Z,63.928223
2019-03-01T01:05:38.896Z,64.337158
2019-03-01T01:06:48.408Z,64.031982
2019-03-01T01:07:57.913Z,63.824463
2019-03-01T01:09:07.455Z,63.513184
2019-03-01T01:10:16.972Z,63.513184
2019-03-01T01:11:26.485Z,63.513184
2019-03-01T01:12:35.985Z,63.616943
2019-03-01T01:13:45.500Z,64.031982
2019-03-01T01:14:55.014Z,63.647461
2019-03-01T01:16:04.524Z,64.056396
2019-03-01T01:17:14.032Z,63.95874
2019-03-01T01:18:23.550Z,63.543701
2019-03-01T01:19:33.052Z,63.647461
2019-03-01T01:20:42.563Z,63.647461
2019-03-01T01:21:52.066Z,63.543701
2019-03-01T01:23:01.577Z,63.647461
2019-03-01T01:24:11.091Z,63.85498
2019-03-01T01:25:20.590Z,63.85498
2019-03-01T01:26:30.093Z,63.647461
2019-03-01T01:27:41.043Z,63.95874
2019-03-01T01:28:49.111Z,64.190674
2019-03-01T01:29:58.616Z,64.294434
2019-03-01T01:31:08.120Z,64.294434
2019-03-01T01:32:17.635Z,64.501953
2019-03-01T01:33:27.145Z,64.599609
2019-03-01T01:34:36.623Z,64.703369
2019-03-01T01:35:46.138Z,64.910889
2019-03-01T01:36:55.642Z,65.014648
2019-03-01T01:38:05.138Z,65.045166
2019-03-01T01:39:14.648Z,65.142822
2019-03-01T01:40:24.162Z,65.350342
2019-03-01T01:41:33.681Z,65.350342
2019-03-01T01:42:43.183Z,65.454102
2019-03-01T01:43:52.691Z,65.454102
2019-03-01T01:45:02.204Z,65.661621
2019-03-01T01:46:11.720Z,65.557861
2019-03-01T01:47:21.236Z,65.661621
2019-03-01T01:48:30.738Z,65.557861
2019-03-01T01:49:40.234Z,65.661621
2019-03-01T01:50:49.773Z,65.661621
2019-03-01T01:51:59.250Z,65.765381
2019-03-01T01:53:08.753Z,65.863037
2019-03-01T01:54:18.255Z,65.765381
2019-03-01T01:55:27.758Z,65.863037
2019-03-01T01:56:37.275Z,65.863037
2019-03-01T01:57:46.777Z,65.661621
2019-03-01T01:58:56.274Z,65.661621
2019-03-01T02:00:05.782Z,65.661621
2019-03-01T02:01:15.279Z,65.661621
2019-03-01T02:02:24.803Z,65.661621
2019-03-01T02:03:34.317Z,65.765381
2019-03-01T02:04:43.824Z,65.661621
2019-03-01T02:05:53.332Z,65.765381
2019-03-01T02:07:02.861Z,65.765381
2019-03-01T02:08:12.361Z,65.765381
2019-03-01T02:09:21.888Z,65.765381
2019-03-01T02:10:31.400Z,65.661621
2019-03-01T02:11:40.909Z,65.557861
2019-03-01T02:12:50.442Z,65.765381
2019-03-01T02:13:59.952Z,65.765381
2019-03-01T02:15:09.446Z,65.765381
2019-03-01T02:16:18.942Z,65.661621
2019-03-01T02:17:28.470Z,65.661621
2019-03-01T02:18:37.972Z,65.661621
2019-03-01T02:19:47.527Z,65.454102
2019-03-01T02:20:57.072Z,65.557861
2019-03-01T02:22:06.584Z,65.557861
2019-03-01T02:23:16.100Z,65.661621
2019-03-01T02:24:25.590Z,65.863037
2019-03-01T02:25:35.091Z,65.765381
2019-03-01T02:26:44.602Z,65.661621
2019-03-01T02:27:54.120Z,65.557861
2019-03-01T02:29:03.612Z,65.527344
2019-03-01T02:30:13.119Z,65.216064
2019-03-01T02:31:22.617Z,65.014648
2019-03-01T02:32:32.133Z,65.319824
2019-03-01T02:33:41.642Z,65.216064
2019-03-01T02:34:51.143Z,65.454102
2019-03-01T02:36:00.653Z,65.454102
2019-03-01T02:37:10.156Z,65.661621
2019-03-01T02:38:19.670Z,65.557861
2019-03-01T02:39:29.163Z,65.661621
2019-03-01T02:40:38.667Z,65.557861
2019-03-01T02:41:48.176Z,65.557861
2019-03-01T02:42:57.690Z,65.661621
2019-03-01T02:44:07.190Z,65.661621
2019-03-01T02:45:16.711Z,65.454102
2019-03-01T02:46:26.187Z,65.454102
2019-03-01T02:47:35.723Z,65.454102
2019-03-01T02:48:45.227Z,65.661621
2019-03-01T02:49:54.740Z,65.765381
2019-03-01T02:51:04.244Z,65.557861
2019-03-01T02:52:13.760Z,65.661621
2019-03-01T02:53:23.289Z,65.966797
2019-03-01T02:54:32.781Z,65.966797
2019-03-01T02:55:42.286Z,65.966797
2019-03-01T02:56:51.795Z,65.966797
2019-03-01T02:58:01.304Z,65.863037
2019-03-01T02:59:10.806Z,65.661621
2019-03-01T03:00:20.307Z,65.765381
2019-03-01T03:01:29.825Z,65.661621
2019-03-01T03:02:39.331Z,65.661621
2019-03-01T03:03:48.901Z,65.350342
2019-03-01T03:04:58.405Z,65.246582
2019-03-01T03:06:07.933Z,65.246582
2019-03-01T03:07:17.453Z,65.246582
2019-03-01T03:08:26.974Z,65.246582
2019-03-01T03:09:36.510Z,65.142822
2019-03-01T03:10:46.012Z,65.142822
2019-03-01T03:11:55.504Z,65.246582
2019-03-01T03:13:05.023Z,64.941406
2019-03-01T03:14:14.543Z,64.733887
2019-03-01T03:15:24.047Z,64.733887
2019-03-01T03:16:33.553Z,64.526367
2019-03-01T03:17:43.060Z,64.428711
2019-03-01T03:18:52.577Z,64.324951
2019-03-01T03:20:02.100Z,64.221191
2019-03-01T03:21:11.600Z,64.117432
2019-03-01T03:22:21.109Z,64.117432
2019-03-01T03:23:30.657Z,64.117432
2019-03-01T03:24:40.166Z,64.221191
2019-03-01T03:25:50.667Z,64.221191
2019-03-01T03:27:00.192Z,63.812256
2019-03-01T03:28:09.717Z,63.708496
2019-03-01T03:29:19.217Z,63.677979
2019-03-01T03:30:28.726Z,64.733887
2019-03-01T03:31:38.229Z,65.661621
2019-03-01T03:32:47.739Z,65.966797
2019-03-01T03:33:57.251Z,67.095947
2019-03-01T03:35:06.756Z,68.365479
2019-03-01T03:36:16.255Z,70.41626
2019-03-01T03:37:25.763Z,69.525146
2019-03-01T03:38:35.292Z,69.421387
2019-03-01T03:39:44.779Z,70.349121
2019-03-01T03:40:55.277Z,70.349121
2019-03-01T03:42:04.779Z,70.861816
2019-03-01T03:43:14.305Z,69.525146
2019-03-01T03:44:23.807Z,69.940186
2019-03-01T03:45:33.309Z,70.556641
2019-03-01T03:46:42.816Z,69.940186
2019-03-01T03:47:52.334Z,69.421387
2019-03-01T03:49:01.851Z,68.463135
2019-03-01T03:50:11.356Z,68.878174
2019-03-01T03:51:20.863Z,68.463135
2019-03-01T03:52:30.369Z,68.981934
2019-03-01T03:53:39.901Z,69.940186
2019-03-01T03:54:49.406Z,71.069336
2019-03-01T03:55:58.913Z,72.198486
2019-03-01T03:57:08.413Z,72.027588
2019-03-01T03:58:17.949Z,72.955322
2019-03-01T03:59:27.447Z,73.675537
2019-03-01T04:00:36.954Z,77.001953
2019-03-01T04:01:46.469Z,74.633789
2019-03-01T04:02:55.974Z,75.665283
2019-03-01T04:04:05.556Z,74.017334
2019-03-01T04:05:15.079Z,75.970459
2019-03-01T04:06:24.571Z,77.001953
2019-03-01T04:07:34.075Z,75.250244
2019-03-01T04:08:43.594Z,77.453613
2019-03-01T04:09:53.100Z,76.727295
2019-03-01T04:11:02.609Z,77.246094
2019-03-01T04:12:12.110Z,76.2146
2019-03-01T04:13:21.641Z,77.038574
2019-03-01T04:14:31.127Z,77.453613
2019-03-01T04:15:40.638Z,76.629639
2019-03-01T04:16:50.202Z,77.55127
2019-03-01T04:17:59.705Z,78.894043
2019-03-01T04:19:09.265Z,77.038574
2019-03-01T04:20:18.787Z,77.966309
2019-03-01T04:21:28.267Z,77.655029
2019-03-01T04:22:37.783Z,79.443359
2019-03-01T04:23:47.305Z,79.3396
2019-03-01T04:24:56.807Z,79.754639
2019-03-01T04:26:06.298Z,80.371094
2019-03-01T04:27:15.807Z,80.371094
2019-03-01T04:28:25.319Z,81.091309
2019-03-01T04:29:34.828Z,80.407715
2019-03-01T04:30:44.346Z,79.547119
2019-03-01T04:31:53.850Z,79.443359
2019-03-01T04:33:03.354Z,79.138184
2019-03-01T04:34:12.870Z,78.723145
2019-03-01T04:35:22.373Z,78.826904
2019-03-01T04:36:31.877Z,80.474854
2019-03-01T04:37:41.384Z,79.962158
2019-03-01T04:38:50.906Z,80.578613
2019-03-01T04:40:00.424Z,80.889893
2019-03-01T04:41:09.966Z,79.858398
2019-03-01T04:42:19.461Z,81.811523
2019-03-01T04:43:28.992Z,81.610107
2019-03-01T04:44:38.514Z,81.030273
2019-03-01T04:45:48.022Z,81.12793
2019-03-01T04:46:57.544Z,81.646729
2019-03-01T04:48:07.052Z,82.055664
2019-03-01T04:49:17.600Z,81.542969
2019-03-01T04:50:27.124Z,82.055664
2019-03-01T04:51:39.993Z,81.030273
2019-03-01T04:52:46.111Z,80.786133
2019-03-01T04:53:55.636Z,81.091309
2019-03-01T04:55:05.139Z,80.682373
2019-03-01T04:56:14.648Z,80.786133
2019-03-01T04:57:24.157Z,80.889893
2019-03-01T04:58:33.677Z,81.713867
2019-03-01T04:59:43.185Z,82.055664
2019-03-01T05:00:52.691Z,81.958008
2019-03-01T05:02:02.200Z,81.231689
2019-03-01T05:03:11.748Z,80.718994
2019-03-01T05:04:21.221Z,81.958008
2019-03-01T05:05:30.729Z,81.091309
2019-03-01T05:06:40.237Z,80.987549
2019-03-01T05:07:49.775Z,81.091309
2019-03-01T05:08:59.276Z,80.987549
2019-03-01T05:10:08.788Z,81.506348
2019-03-01T05:11:18.300Z,80.682373
2019-03-01T05:12:27.815Z,81.091309
2019-03-01T05:13:37.319Z,80.578613
2019-03-01T05:14:46.833Z,81.091309
2019-03-01T05:15:56.364Z,80.578613
2019-03-01T05:17:05.881Z,80.889893
2019-03-01T05:18:15.481Z,79.962158
2019-03-01T05:19:24.987Z,79.23584
2019-03-01T05:20:34.502Z,79.138184
2019-03-01T05:21:44.035Z,79.754639
2019-03-01T05:22:53.537Z,78.619385
2019-03-01T05:24:03.044Z,79.23584
2019-03-01T05:25:12.561Z,79.101562
2019-03-01T05:26:22.055Z,78.582764
2019-03-01T05:27:31.573Z,79.302979
2019-03-01T05:28:41.074Z,78.997803
2019-03-01T05:29:50.578Z,77.758789
2019-03-01T05:31:00.076Z,78.790283
2019-03-01T05:32:09.614Z,79.101562
2019-03-01T05:33:19.263Z,78.790283
2019-03-01T05:34:28.781Z,79.614258
2019-03-01T05:35:38.290Z,80.126953
2019-03-01T05:36:47.842Z,79.650879
2019-03-01T05:37:57.347Z,79.754639
2019-03-01T05:39:06.853Z,80.163574
2019-03-01T05:40:16.360Z,80.578613
2019-03-01T05:41:25.868Z,79.23584
2019-03-01T05:42:35.397Z,78.173828
2019-03-01T05:43:44.903Z,79.101562
2019-03-01T05:44:54.406Z,80.126953
2019-03-01T05:46:04.971Z,79.406738
2019-03-01T05:47:14.461Z,79.302979
2019-03-01T05:48:23.967Z,78.582764
2019-03-01T05:49:33.503Z,78.582764
2019-03-01T05:50:43.009Z,80.126953
2019-03-01T05:51:52.609Z,80.889893
2019-03-01T05:53:02.131Z,82.574463
2019-03-01T05:54:11.640Z,83.709717
2019-03-01T05:55:21.144Z,84.777832
2019-03-01T05:56:30.641Z,86.224365
2019-03-01T05:57:40.162Z,86.468506
2019-03-01T05:58:49.675Z,87.60376
2019-03-01T05:59:59.176Z,87.95166
2019-03-01T06:01:08.679Z,87.542725
2019-03-01T06:02:18.203Z,87.231445
2019-03-01T06:03:27.709Z,87.335205
2019-03-01T06:04:37.217Z,87.542725
2019-03-01T06:05:46.726Z,86.779785
2019-03-01T06:06:56.236Z,88.15918
2019-03-01T06:08:05.758Z,87.744141
2019-03-01T06:09:15.269Z,88.885498
2019-03-01T06:10:24.782Z,88.781738
2019-03-01T06:11:34.290Z,88.885498
2019-03-01T06:12:43.807Z,88.574219
2019-03-01T06:13:53.307Z,88.470459
2019-03-01T06:15:02.807Z,88.15918
2019-03-01T06:16:12.325Z,88.366699
2019-03-01T06:17:21.840Z,88.781738
2019-03-01T06:18:31.354Z,89.294434
2019-03-01T06:19:40.863Z,88.05542
2019-03-01T06:20:50.377Z,88.470459
2019-03-01T06:21:59.891Z,88.018799
2019-03-01T06:23:09.406Z,88.983154
2019-03-01T06:24:18.932Z,88.116455
2019-03-01T06:25:28.441Z,87.811279
2019-03-01T06:26:37.944Z,87.60376
2019-03-01T06:27:47.461Z,86.883545
2019-03-01T06:28:57.005Z,87.60376
2019-03-01T06:30:07.512Z,87.915039
2019-03-01T06:31:17.038Z,88.323975
2019-03-01T06:32:26.553Z,87.39624
2019-03-01T06:33:36.073Z,88.018799
2019-03-01T06:34:45.590Z,87.29248
2019-03-01T06:35:55.091Z,87.39624
2019-03-01T06:37:04.599Z,87.811279
2019-03-01T06:38:16.006Z,88.018799
2019-03-01T06:39:23.646Z,86.981201
2019-03-01T06:40:33.178Z,87.29248
2019-03-01T06:41:42.689Z,87.084961
2019-03-01T06:42:52.206Z,87.39624
2019-03-01T06:44:01.719Z,87.084961
2019-03-01T06:45:11.229Z,86.468506
2019-03-01T06:46:20.741Z,86.016846
2019-03-01T06:47:30.262Z,86.016846
2019-03-01T06:48:39.779Z,87.1521
2019-03-01T06:49:49.305Z,85.705566
2019-03-01T06:50:58.796Z,86.120605
2019-03-01T06:52:08.292Z,84.985352
2019-03-01T06:53:17.817Z,84.985352
2019-03-01T06:54:27.337Z,84.985352
2019-03-01T06:55:36.841Z,84.985352
2019-03-01T06:56:46.351Z,85.089111
2019-03-01T06:57:55.870Z,84.362793
2019-03-01T06:59:05.369Z,84.674072
2019-03-01T07:00:14.871Z,84.057617
2019-03-01T07:01:24.382Z,83.605957
2019-03-01T07:02:33.901Z,83.398438
2019-03-01T07:03:43.404Z,83.294678
2019-03-01T07:04:52.933Z,83.502197
2019-03-01T07:06:03.447Z,82.983398
2019-03-01T07:07:11.938Z,82.781982
2019-03-01T07:08:21.458Z,82.885742
2019-03-01T07:09:30.964Z,82.678223
2019-03-01T07:10:40.481Z,83.605957
2019-03-01T07:11:50.011Z,82.983398
2019-03-01T07:12:59.527Z,82.983398
2019-03-01T07:14:09.052Z,82.983398
2019-03-01T07:15:18.556Z,82.470703
2019-03-01T07:16:28.062Z,82.159424
2019-03-01T07:17:37.572Z,82.263184
2019-03-01T07:18:47.141Z,82.055664
2019-03-01T07:19:56.620Z,82.983398
2019-03-01T07:21:06.130Z,84.014893
2019-03-01T07:22:15.631Z,83.709717
2019-03-01T07:23:25.147Z,84.429932
2019-03-01T07:24:35.640Z,84.942627
2019-03-01T07:25:45.135Z,84.466553
2019-03-01T07:26:54.634Z,84.985352
2019-03-01T07:28:04.164Z,84.674072
2019-03-01T07:29:13.674Z,84.265137
2019-03-01T07:30:23.181Z,84.265137
2019-03-01T07:31:32.707Z,85.089111
2019-03-01T07:32:42.202Z,84.466553
2019-03-01T07:33:51.724Z,84.881592
2019-03-01T07:35:01.220Z,84.362793
2019-03-01T07:36:10.736Z,84.570312
2019-03-01T07:37:21.835Z,84.674072
2019-03-01T07:38:29.752Z,84.466553
2019-03-01T07:39:39.254Z,83.953857
2019-03-01T07:40:48.767Z,84.570312
2019-03-01T07:41:58.309Z,83.746338
2019-03-01T07:43:07.855Z,84.777832
2019-03-01T07:44:17.325Z,85.192871
2019-03-01T07:45:26.853Z,84.881592
2019-03-01T07:46:36.368Z,85.021973
2019-03-01T07:47:45.865Z,85.852051
2019-03-01T07:48:55.395Z,85.125732
2019-03-01T07:50:04.899Z,85.748291
2019-03-01T07:51:14.408Z,87.188721
2019-03-01T07:52:23.971Z,86.712646
2019-03-01T07:53:35.635Z,86.712646
2019-03-01T07:54:44.114Z,86.816406
2019-03-01T07:55:54.651Z,87.438965
2019-03-01T07:57:05.181Z,87.542725
2019-03-01T07:58:15.780Z,88.305664
2019-03-01T07:59:26.337Z,87.786865
2019-03-01T08:00:36.925Z,88.513184
2019-03-01T08:01:46.501Z,88.201904
2019-03-01T08:02:56.073Z,88.61084
2019-03-01T08:04:05.670Z,88.201904
2019-03-01T08:05:16.306Z,88.305664
2019-03-01T08:06:24.860Z,88.922119
2019-03-01T08:07:34.532Z,88.922119
2019-03-01T08:08:44.142Z,89.129639
2019-03-01T08:09:54.241Z,89.440918
2019-03-01T08:11:03.400Z,89.129639
2019-03-01T08:12:12.977Z,88.305664
2019-03-01T08:13:22.611Z,89.025879
2019-03-01T08:14:32.180Z,89.648438
2019-03-01T08:15:44.783Z,88.922119
2019-03-01T08:16:52.540Z,88.513184
2019-03-01T08:18:04.597Z,88.964844
2019-03-01T08:19:15.673Z,89.996338
2019-03-01T08:20:22.991Z,90.203857
2019-03-01T08:21:33.550Z,91.235352
2019-03-01T08:22:48.328Z,91.235352
2019-03-01T08:23:53.713Z,90.826416
2019-03-01T08:25:03.284Z,91.339111
2019-03-01T08:26:12.849Z,90.722656
2019-03-01T08:27:22.422Z,90.557861
2019-03-01T08:28:32.008Z,90.869141
2019-03-01T08:29:41.618Z,90.454102
2019-03-01T08:30:51.181Z,89.935303
2019-03-01T08:32:01.733Z,90.142822
2019-03-01T08:33:11.310Z,90.039062
2019-03-01T08:34:21.024Z,89.935303
2019-03-01T08:35:32.118Z,89.520264
2019-03-01T08:36:42.354Z,89.831543
2019-03-01T08:37:53.164Z,90.039062
2019-03-01T08:39:00.761Z,90.039062
2019-03-01T08:40:11.435Z,89.831543
2019-03-01T08:41:21.484Z,90.350342
2019-03-01T08:42:32.574Z,90.9729
2019-03-01T08:43:44.630Z,90.454102
2019-03-01T08:44:54.520Z,90.142822
2019-03-01T08:46:05.357Z,90.765381
2019-03-01T08:47:13.105Z,90.765381
2019-03-01T08:48:23.673Z,90.661621
2019-03-01T08:49:34.263Z,90.557861
2019-03-01T08:50:43.854Z,90.350342
2019-03-01T08:51:53.417Z,90.246582
2019-03-01T08:53:03.991Z,90.661621
2019-03-01T08:54:14.579Z,90.722656
2019-03-01T08:55:24.145Z,90.930176
2019-03-01T08:56:33.722Z,90.618896
2019-03-01T08:57:44.360Z,90.307617
2019-03-01T08:58:52.871Z,89.788818
2019-03-01T09:00:02.488Z,90.100098
2019-03-01T09:01:12.023Z,90.826416
2019-03-01T09:02:21.606Z,90.826416
2019-03-01T09:03:31.157Z,90.722656
2019-03-01T09:04:50.389Z,91.339111
2019-03-01T09:05:51.295Z,91.589355
2019-03-01T09:07:01.629Z,91.339111
2019-03-01T09:08:10.456Z,91.85791
2019-03-01T09:09:20.884Z,91.85791
2019-03-01T09:10:32.476Z,91.131592
2019-03-01T09:11:41.602Z,91.85791
2019-03-01T09:12:49.687Z,92.169189
2019-03-01T09:13:59.374Z,91.339111
2019-03-01T09:15:08.941Z,91.442871
2019-03-01T09:16:18.498Z,91.546631
2019-03-01T09:17:28.070Z,92.06543
2019-03-01T09:18:37.606Z,91.75415
2019-03-01T09:19:47.221Z,92.06543
2019-03-01T09:21:04.371Z,92.376709
2019-03-01T09:22:07.212Z,91.96167
2019-03-01T09:23:24.131Z,91.75415
2019-03-01T09:24:29.031Z,91.96167
2019-03-01T09:25:36.701Z,91.442871
2019-03-01T09:26:47.185Z,91.96167
2019-03-01T09:27:57.616Z,91.96167
2019-03-01T09:29:06.193Z,91.918945
2019-03-01T09:30:16.717Z,91.400146
2019-03-01T09:31:26.223Z,91.19873
2019-03-01T09:32:35.732Z,91.19873
2019-03-01T09:33:45.232Z,91.400146
2019-03-01T09:34:54.782Z,91.052246
2019-03-01T09:36:04.291Z,91.052246
2019-03-01T09:37:13.809Z,91.259766
2019-03-01T09:38:23.329Z,91.320801
2019-03-01T09:39:32.849Z,90.594482
2019-03-01T09:40:42.347Z,91.217041
2019-03-01T09:41:51.857Z,91.009521
2019-03-01T09:43:02.348Z,90.698242
2019-03-01T09:44:11.850Z,90.386963
2019-03-01T09:45:21.378Z,90.863037
2019-03-01T09:46:30.877Z,90.246582
2019-03-01T09:47:40.381Z,90.655518
2019-03-01T09:48:50.486Z,90.039062
2019-03-01T09:49:59.957Z,89.562988
2019-03-01T09:51:10.511Z,89.459229
2019-03-01T09:52:20.335Z,89.770508
2019-03-01T09:53:30.443Z,90.350342
2019-03-01T09:54:39.381Z,89.727783
2019-03-01T09:55:48.881Z,89.416504
2019-03-01T09:56:58.395Z,89.007568
2019-03-01T09:58:08.548Z,89.111328
2019-03-01T09:59:17.407Z,89.520264
2019-03-01T10:00:26.941Z,90.039062
2019-03-01T10:01:36.443Z,89.416504
2019-03-01T10:02:45.950Z,89.111328
2019-03-01T10:03:56.216Z,89.318848
2019-03-01T10:05:04.979Z,89.624023
2019-03-01T10:06:14.495Z,89.935303
2019-03-01T10:07:24.060Z,90.246582
2019-03-01T10:08:33.608Z,90.447998
2019-03-01T10:09:43.182Z,89.520264
2019-03-01T10:10:52.818Z,89.624023
2019-03-01T10:12:02.374Z,89.520264
2019-03-01T10:13:11.939Z,89.520264
2019-03-01T10:14:21.545Z,89.727783
2019-03-01T10:15:31.133Z,89.935303
2019-03-01T10:16:40.716Z,90.551758
2019-03-01T10:17:50.292Z,90.655518
2019-03-01T10:18:59.895Z,90.551758
2019-03-01T10:20:10.507Z,89.727783
2019-03-01T10:21:20.046Z,89.416504
2019-03-01T10:22:29.553Z,90.447998
2019-03-01T10:23:39.059Z,89.727783
2019-03-01T10:24:48.571Z,89.624023
2019-03-01T10:25:58.089Z,90.039062
2019-03-01T10:27:07.604Z,89.416504
2019-03-01T10:28:17.098Z,89.727783
2019-03-01T10:29:26.618Z,89.416504
2019-03-01T10:30:36.184Z,88.800049
2019-03-01T10:31:45.663Z,89.111328
2019-03-01T10:32:55.162Z,89.318848
2019-03-01T10:34:04.665Z,89.624023
2019-03-01T10:35:14.199Z,89.318848
2019-03-01T10:36:23.694Z,89.727783
2019-03-01T10:37:33.197Z,89.007568
2019-03-01T10:38:42.701Z,89.318848
2019-03-01T10:39:55.243Z,89.111328
2019-03-01T10:41:01.696Z,89.111328
2019-03-01T10:42:11.212Z,90.142822
2019-03-01T10:43:20.730Z,89.111328
2019-03-01T10:44:30.253Z,89.111328
2019-03-01T10:45:39.803Z,89.416504
2019-03-01T10:46:49.306Z,89.111328
2019-03-01T10:47:58.802Z,89.520264
2019-03-01T10:49:08.312Z,88.287354
2019-03-01T10:50:17.830Z,88.183594
2019-03-01T10:51:27.366Z,89.318848
2019-03-01T10:52:36.883Z,89.788818
2019-03-01T10:53:47.810Z,89.379883
2019-03-01T10:54:55.881Z,87.872314
2019-03-01T10:56:05.419Z,88.079834
2019-03-01T10:57:14.916Z,88.287354
2019-03-01T10:58:24.421Z,88.183594
2019-03-01T10:59:33.930Z,87.976074
2019-03-01T11:00:43.450Z,88.696289
2019-03-01T11:01:52.974Z,87.768555
2019-03-01T11:03:03.460Z,87.976074
2019-03-01T11:04:12.960Z,88.287354
2019-03-01T11:05:22.465Z,89.111328
2019-03-01T11:06:31.987Z,88.800049
2019-03-01T11:07:41.489Z,88.757324
2019-03-01T11:08:50.992Z,88.653564
2019-03-01T11:10:00.533Z,89.068604
2019-03-01T11:11:10.055Z,89.379883
2019-03-01T11:12:19.575Z,87.420654
2019-03-01T11:13:29.056Z,86.798096
2019-03-01T11:14:38.559Z,87.93335
2019-03-01T11:15:48.080Z,87.72583
2019-03-01T11:16:57.578Z,87.82959
2019-03-01T11:18:07.085Z,87.316895
2019-03-01T11:19:16.610Z,87.524414
2019-03-01T11:20:26.117Z,86.901855
2019-03-01T11:21:35.640Z,86.2854
2019-03-01T11:22:45.147Z,86.901855
2019-03-01T11:23:54.647Z,87.481689
2019-03-01T11:25:04.146Z,86.798096
2019-03-01T11:26:13.665Z,86.968994
2019-03-01T11:27:23.171Z,86.38916
2019-03-01T11:28:32.668Z,86.865234
2019-03-01T11:29:42.250Z,87.06665
2019-03-01T11:30:51.770Z,86.077881
2019-03-01T11:32:01.334Z,87.420654
2019-03-01T11:33:10.776Z,88.201904
2019-03-01T11:34:20.288Z,86.968994
2019-03-01T11:35:29.797Z,87.17041
2019-03-01T11:36:39.316Z,87.792969
2019-03-01T11:37:48.822Z,87.792969
2019-03-01T11:38:58.325Z,86.700439
2019-03-01T11:40:07.839Z,87.27417
2019-03-01T11:41:17.357Z,87.689209
2019-03-01T11:42:26.878Z,87.17041
2019-03-01T11:43:36.370Z,87.542725
2019-03-01T11:44:45.860Z,87.341309
2019-03-01T11:45:55.394Z,86.206055
2019-03-01T11:47:05.892Z,85.48584
2019-03-01T11:48:15.557Z,86.04126
2019-03-01T11:49:25.064Z,86.346436
2019-03-01T11:50:34.578Z,87.37793
2019-03-01T11:51:44.090Z,87.213135
2019-03-01T11:52:53.620Z,87.524414
2019-03-01T11:54:03.102Z,86.077881
2019-03-01T11:55:12.607Z,86.181641
2019-03-01T11:56:22.124Z,86.737061
2019-03-01T11:57:31.625Z,87.316895
2019-03-01T11:58:41.143Z,86.016846
2019-03-01T11:59:50.649Z,85.974121
2019-03-01T12:01:00.153Z,85.870361
2019-03-01T12:02:09.667Z,86.181641
2019-03-01T12:03:19.176Z,86.59668
2019-03-01T12:04:28.682Z,84.838867
2019-03-01T12:05:38.186Z,84.326172
2019-03-01T12:06:47.696Z,83.813477
2019-03-01T12:07:57.203Z,84.118652
2019-03-01T12:09:06.705Z,84.082031
2019-03-01T12:10:16.217Z,83.563232
2019-03-01T12:11:25.737Z,81.958008
2019-03-01T12:12:35.239Z,82.366943
2019-03-01T12:13:44.754Z,82.946777
2019-03-01T12:14:54.258Z,83.563232
2019-03-01T12:16:03.773Z,83.258057
2019-03-01T12:17:13.290Z,83.319092
2019-03-01T12:18:22.795Z,82.397461
2019-03-01T12:19:32.301Z,81.091309
2019-03-01T12:20:41.801Z,81.091309
2019-03-01T12:21:51.324Z,81.713867
2019-03-01T12:23:00.834Z,82.598877
2019-03-01T12:24:10.335Z,81.506348
2019-03-01T12:25:19.835Z,80.682373
2019-03-01T12:26:29.360Z,81.091309
2019-03-01T12:27:38.852Z,80.950928
2019-03-01T12:28:48.356Z,81.262207
2019-03-01T12:29:57.859Z,81.262207
2019-03-01T12:31:07.362Z,82.293701
2019-03-01T12:32:16.876Z,82.293701
2019-03-01T12:33:26.381Z,82.086182
2019-03-01T12:34:35.885Z,81.610107
2019-03-01T12:35:45.397Z,81.811523
2019-03-01T12:36:54.915Z,82.537842
2019-03-01T12:38:04.417Z,81.811523
2019-03-01T12:39:13.924Z,82.434082
2019-03-01T12:40:23.429Z,83.154297
2019-03-01T12:41:32.964Z,84.490967
2019-03-01T12:42:43.454Z,83.050537
2019-03-01T12:43:52.962Z,82.781982
2019-03-01T12:45:02.488Z,83.813477
2019-03-01T12:46:11.992Z,83.502197
2019-03-01T12:47:22.515Z,83.258057
2019-03-01T12:48:32.025Z,83.465576
2019-03-01T12:49:41.523Z,82.641602
2019-03-01T12:50:51.040Z,82.537842
2019-03-01T12:52:00.567Z,83.563232
2019-03-01T12:53:10.070Z,83.666992
2019-03-01T12:54:19.575Z,82.739258
2019-03-01T12:55:29.081Z,81.610107
2019-03-01T12:56:38.611Z,81.915283
2019-03-01T12:57:48.115Z,82.122803
2019-03-01T12:58:57.615Z,81.298828
2019-03-01T13:00:07.123Z,81.469727
2019-03-01T13:01:16.617Z,81.469727
2019-03-01T13:02:26.166Z,80.230713
2019-03-01T13:03:35.671Z,81.262207
2019-03-01T13:04:45.195Z,81.469727
2019-03-01T13:05:55.685Z,82.086182
2019-03-01T13:07:05.226Z,80.950928
2019-03-01T13:08:16.624Z,81.158447
2019-03-01T13:09:26.414Z,81.573486
2019-03-01T13:10:36.660Z,81.262207
2019-03-01T13:11:45.246Z,81.262207
2019-03-01T13:12:58.623Z,80.950928
2019-03-01T13:14:06.207Z,80.126953
2019-03-01T13:15:15.701Z,78.997803